Time;durP1;ratioP1;P1;durP2;ratioP2;P2;SDS_P1;SDS_P2;PMS_P1;PMS_P2;Temp;Humidity;BMP_temperature;BMP_pressure;BME280_temperature;BME280_humidity;BME280_pressure;Samples;Min_cycle;Max_cycle;Signal;HPM_P1;HPM_P2
2022/12/16 00:02:20;;;;;;;0.10;0.10;;;14.00;99.90;;;;;;5048612;28;20087;-75
2022/12/16 00:04:46;;;;;;;0.10;0.10;;;14.10;99.90;;;;;;5046186;28;20229;-78
2022/12/16 00:07:12;;;;;;;0.10;0.10;;;14.00;99.90;;;;;;5047378;28;20435;-75
2022/12/16 00:09:38;;;;;;;0.60;0.60;;;13.80;99.90;;;;;;5053756;28;20032;-78
2022/12/16 00:12:04;;;;;;;0.10;0.10;;;13.70;99.90;;;;;;5035027;28;20036;-75
2022/12/16 00:14:30;;;;;;;0.15;0.15;;;13.80;99.90;;;;;;5058090;28;20025;-75
2022/12/16 00:16:55;;;;;;;0.20;0.20;;;13.90;99.90;;;;;;5049182;28;20114;-76
2022/12/16 00:19:21;;;;;;;0.10;0.10;;;13.90;99.90;;;;;;5044708;28;20040;-77
2022/12/16 00:21:47;;;;;;;0.10;0.10;;;13.80;99.90;;;;;;5042536;28;20478;-75
2022/12/16 00:24:13;;;;;;;0.10;0.10;;;13.80;99.90;;;;;;5042119;28;20053;-76
2022/12/16 00:26:38;;;;;;;0.10;0.10;;;13.80;99.90;;;;;;5044387;28;20057;-75
2022/12/16 00:29:04;;;;;;;0.20;0.20;;;14.10;99.90;;;;;;5049743;28;20053;-79
2022/12/16 00:31:30;;;;;;;0.10;0.10;;;14.20;99.90;;;;;;5041484;28;20435;-76
2022/12/16 00:33:57;;;;;;;0.10;0.10;;;14.10;99.90;;;;;;5042575;28;20082;-80
2022/12/16 00:36:23;;;;;;;0.10;0.10;;;14.10;99.90;;;;;;5042647;28;20028;-79
2022/12/16 00:38:51;;;;;;;0.10;0.10;;;14.00;99.90;;;;;;5042220;28;20472;-78
2022/12/16 00:41:16;;;;;;;0.10;0.10;;;13.90;99.90;;;;;;5041870;28;20288;-80
2022/12/16 00:43:42;;;;;;;0.10;0.10;;;14.00;99.90;;;;;;5043063;28;20013;-79
2022/12/16 00:46:08;;;;;;;0.10;0.10;;;14.10;99.90;;;;;;5041223;28;20029;-80
2022/12/16 00:48:34;;;;;;;0.20;0.20;;;14.10;99.90;;;;;;5041636;28;20480;-85
2022/12/16 00:50:59;;;;;;;0.20;0.20;;;14.00;99.90;;;;;;5042164;28;20025;-80
2022/12/16 00:53:25;;;;;;;0.13;0.13;;;14.10;99.90;;;;;;5041657;28;20021;-76
2022/12/16 00:56:00;;;;;;;0.10;0.10;;;14.10;99.90;;;;;;5041161;28;20020;-81
2022/12/16 00:58:27;;;;;;;0.10;0.10;;;14.10;99.90;;;;;;5023767;28;20391;-78
2022/12/16 01:00:52;;;;;;;0.10;0.10;;;14.20;99.90;;;;;;5040203;28;20029;-78
2022/12/16 01:03:18;;;;;;;0.10;0.10;;;14.10;99.90;;;;;;5040119;28;20025;-79
2022/12/16 01:05:44;;;;;;;0.20;0.20;;;14.00;99.90;;;;;;5039985;28;20526;-75
2022/12/16 01:08:10;;;;;;;0.10;0.10;;;14.00;99.90;;;;;;5042901;28;20673;-77
2022/12/16 01:10:36;;;;;;;0.10;0.10;;;13.90;99.90;;;;;;5041956;28;20411;-76
2022/12/16 01:13:01;;;;;;;0.10;0.10;;;13.90;99.90;;;;;;5040383;28;20025;-79
2022/12/16 01:15:27;;;;;;;0.10;0.10;;;13.80;99.90;;;;;;5041828;28;20036;-78
2022/12/16 01:17:53;;;;;;;0.10;0.10;;;13.80;99.90;;;;;;5041186;28;20464;-76
2022/12/16 01:20:19;;;;;;;0.10;0.10;;;13.80;99.90;;;;;;5043121;28;20028;-76
2022/12/16 01:22:45;;;;;;;0.10;0.10;;;13.70;99.90;;;;;;5043150;28;20546;-77
2022/12/16 01:25:14;;;;;;;0.10;0.10;;;13.60;99.90;;;;;;5043455;28;20033;-79
2022/12/16 01:27:40;;;;;;;0.10;0.10;;;13.60;99.90;;;;;;5043804;28;20041;-80
2022/12/16 01:30:09;;;;;;;0.20;0.20;;;13.50;99.90;;;;;;5043410;28;20013;-79
2022/12/16 01:32:36;;;;;;;0.10;0.10;;;13.50;99.90;;;;;;5043349;28;20032;-77
2022/12/16 01:35:01;;;;;;;0.17;0.17;;;13.40;99.90;;;;;;5041028;28;20463;-80
2022/12/16 01:37:27;;;;;;;0.10;0.10;;;13.30;99.90;;;;;;5040738;28;20072;-80
2022/12/16 01:39:53;;;;;;;0.10;0.10;;;13.20;99.90;;;;;;5039955;28;20025;-77
2022/12/16 01:42:21;;;;;;;0.10;0.10;;;12.90;99.90;;;;;;5039698;28;20552;-80
2022/12/16 01:44:49;;;;;;;0.10;0.10;;;12.90;99.90;;;;;;5027213;28;20332;-76
2022/12/16 01:47:20;;;;;;;0.13;0.13;;;13.20;99.90;;;;;;5047626;28;20562;-77
2022/12/16 01:49:49;;;;;;;0.20;0.20;;;12.60;99.90;;;;;;5040085;28;20048;-76
2022/12/16 01:52:20;;;;;;;0.10;0.10;;;12.50;99.90;;;;;;5039381;28;20017;-77
2022/12/16 01:55:06;;;;;;;0.10;0.10;;;12.30;99.90;;;;;;5039879;28;20159;-78
2022/12/16 01:57:57;;;;;;;0.10;0.10;;;12.20;99.90;;;;;;5044587;28;20340;-76
2022/12/16 02:00:23;;;;;;;0.20;0.20;;;12.20;99.90;;;;;;5049346;28;20254;-75
2022/12/16 02:02:50;;;;;;;0.20;0.20;;;12.30;99.90;;;;;;5050578;28;20561;-75
2022/12/16 02:05:20;;;;;;;0.10;0.10;;;12.50;99.90;;;;;;5047268;28;20021;-76
2022/12/16 02:08:06;;;;;;;0.10;0.10;;;12.90;99.90;;;;;;5028602;28;20125;-77
2022/12/16 02:10:49;;;;;;;0.10;0.10;;;13.40;99.90;;;;;;5044082;28;20024;-76
2022/12/16 02:14:10;;;;;;;0.20;0.20;;;13.40;99.90;;;;;;5024870;28;20025;-77
2022/12/16 02:16:46;;;;;;;1.17;1.17;;;13.60;99.90;;;;;;4957845;28;20035;-76
2022/12/16 02:19:56;;;;;;;0.10;0.10;;;13.60;99.90;;;;;;4958976;28;20123;-76
2022/12/16 02:22:40;;;;;;;0.10;0.10;;;13.80;99.90;;;;;;4970666;28;20385;-76
2022/12/16 02:25:17;;;;;;;0.20;0.20;;;14.10;99.90;;;;;;4971747;28;20030;-82
2022/12/16 02:28:00;;;;;;;0.13;0.13;;;14.00;99.90;;;;;;4959052;28;20148;-80
2022/12/16 02:30:59;;;;;;;0.10;0.10;;;13.80;99.90;;;;;;4959166;28;20050;-76
2022/12/16 02:34:05;;;;;;;0.10;0.10;;;14.30;99.90;;;;;;4962326;28;20084;-77
2022/12/16 02:36:40;;;;;;;0.10;0.10;;;14.40;99.90;;;;;;4883403;29;20051;-77
2022/12/16 02:39:39;;;;;;;0.10;0.10;;;14.60;99.90;;;;;;4881268;29;20037;-76
2022/12/16 02:42:39;;;;;;;0.10;0.10;;;14.60;99.90;;;;;;4843920;29;20030;-76
2022/12/16 02:45:16;;;;;;;0.10;0.10;;;14.60;99.90;;;;;;4773306;29;20847;-80
2022/12/16 02:47:43;;;;;;;0.20;0.20;;;14.60;99.90;;;;;;4774705;29;20055;-77
2022/12/16 02:50:39;;;;;;;0.10;0.10;;;14.20;99.90;;;;;;4792190;29;20082;-81
2022/12/16 02:53:08;;;;;;;0.10;0.10;;;14.10;99.90;;;;;;4843327;29;20048;-83
2022/12/16 02:55:53;;;;;;;0.10;0.10;;;14.00;99.90;;;;;;4845347;29;20085;-81
2022/12/16 02:58:30;;;;;;;0.10;0.10;;;14.20;99.90;;;;;;4835121;29;20051;-76
2022/12/16 03:01:39;;;;;;;0.10;0.10;;;14.20;99.90;;;;;;4844722;29;20364;-78
2022/12/16 03:04:29;;;;;;;0.10;0.10;;;14.20;99.90;;;;;;4843564;29;20144;-79
2022/12/16 03:06:56;;;;;;;0.10;0.10;;;14.40;99.90;;;;;;4843268;29;20061;-79
2022/12/16 03:09:28;;;;;;;0.10;0.10;;;14.50;99.90;;;;;;4845275;29;20343;-76
2022/12/16 03:11:55;;;;;;;0.20;0.20;;;14.40;99.90;;;;;;4883536;29;20360;-76
2022/12/16 03:14:23;;;;;;;0.10;0.10;;;14.40;99.90;;;;;;4899241;29;20032;-76
2022/12/16 03:16:50;;;;;;;0.10;0.10;;;14.30;99.90;;;;;;4907016;28;20039;-87
2022/12/16 03:19:16;;;;;;;0.10;0.10;;;14.10;99.90;;;;;;4958347;28;20042;-81
2022/12/16 03:22:01;;;;;;;0.13;0.13;;;13.80;99.90;;;;;;4982585;28;20508;-80
2022/12/16 03:24:28;;;;;;;0.10;0.10;;;13.70;99.90;;;;;;5037804;28;20547;-76
2022/12/16 03:27:08;;;;;;;0.10;0.10;;;13.60;99.90;;;;;;5037908;28;20241;-83
2022/12/16 03:29:37;;;;;;;0.20;0.20;;;13.50;99.90;;;;;;5038054;28;20028;-77
2022/12/16 03:32:12;;;;;;;0.20;0.20;;;13.40;99.90;;;;;;5040637;28;20029;-77
2022/12/16 03:34:49;;;;;;;0.10;0.10;;;13.80;99.90;;;;;;5045300;28;20432;-80
2022/12/16 03:37:15;;;;;;;0.10;0.10;;;13.70;99.90;;;;;;5039132;28;20041;-76
2022/12/16 03:39:48;;;;;;;0.10;0.10;;;13.40;99.90;;;;;;5042795;28;20043;-75
2022/12/16 03:42:14;;;;;;;0.17;0.17;;;13.50;99.90;;;;;;5049106;28;20017;-75
2022/12/16 03:44:45;;;;;;;0.10;0.10;;;13.70;99.90;;;;;;5044152;28;20021;-75
2022/12/16 03:47:11;;;;;;;0.15;0.15;;;13.70;99.90;;;;;;5042049;28;20064;-75
2022/12/16 03:49:38;;;;;;;0.17;0.17;;;13.90;99.90;;;;;;5040899;28;20021;-74
2022/12/16 03:52:04;;;;;;;0.20;0.20;;;13.90;99.90;;;;;;5038979;28;20025;-76
2022/12/16 03:54:31;;;;;;;0.20;0.20;;;13.90;99.90;;;;;;5037820;28;20017;-75
2022/12/16 03:56:57;;;;;;;0.20;0.20;;;14.50;99.90;;;;;;5037714;28;20105;-77
2022/12/16 03:59:24;;;;;;;0.20;0.20;;;;;;;;;;5021496;28;20216;-74
2022/12/16 04:01:50;;;;;;;0.20;0.20;;;14.20;99.90;;;;;;5038089;28;20020;-75
2022/12/16 04:04:17;;;;;;;0.10;0.10;;;14.10;99.90;;;;;;5037122;28;20053;-75
2022/12/16 04:06:43;;;;;;;0.15;0.15;;;14.20;99.90;;;;;;5040727;28;20345;-79
2022/12/16 04:09:09;;;;;;;0.20;0.20;;;14.30;99.90;;;;;;5047049;28;20036;-75
2022/12/16 04:25:34;;;;;;;0.20;0.20;;;14.30;99.90;;;;;;5041844;28;20028;-75
2022/12/16 04:28:00;;;;;;;0.20;0.20;;;14.40;99.90;;;;;;5040652;28;20053;-75
2022/12/16 04:30:29;;;;;;;0.10;0.10;;;14.40;99.90;;;;;;5041139;28;20036;-77
